sensor_id;sensor_type;location;lat;lon;timestamp;temperature;humidity
12504;DHT22;6316;48.118;-1.690;2024-02-21T00:01:40;11.40;99.90
12504;DHT22;6316;48.118;-1.690;2024-02-21T00:04:06;11.30;99.90
12504;DHT22;6316;48.118;-1.690;2024-02-21T00:06:32;11.30;99.90
12504;DHT22;6316;48.118;-1.690;2024-02-21T00:08:57;11.30;99.90
12504;DHT22;6316;48.118;-1.690;2024-02-21T00:11:23;11.20;99.90
12504;DHT22;6316;48.118;-1.690;2024-02-21T00:13:49;11.30;99.90
12504;DHT22;6316;48.118;-1.690;2024-02-21T00:16:16;11.30;99.90
12504;DHT22;6316;48.118;-1.690;2024-02-21T00:18:43;11.40;99.90
12504;DHT22;6316;48.118;-1.690;2024-02-21T00:21:08;11.30;99.90
12504;DHT22;6316;48.118;-1.690;2024-02-21T00:23:34;11.30;99.90
12504;DHT22;6316;48.118;-1.690;2024-02-21T00:25:59;11.20;99.90
12504;DHT22;6316;48.118;-1.690;2024-02-21T00:28:25;11.10;99.90
12504;DHT22;6316;48.118;-1.690;2024-02-21T00:30:51;11.30;99.90
12504;DHT22;6316;48.118;-1.690;2024-02-21T00:33:19;11.30;99.90
12504;DHT22;6316;48.118;-1.690;2024-02-21T00:35:44;11.30;99.90
12504;DHT22;6316;48.118;-1.690;2024-02-21T00:38:10;11.30;99.90
12504;DHT22;6316;48.118;-1.690;2024-02-21T00:40:36;11.30;99.90
12504;DHT22;6316;48.118;-1.690;2024-02-21T00:43:02;11.30;99.90
12504;DHT22;6316;48.118;-1.690;2024-02-21T00:45:28;11.30;99.90
12504;DHT22;6316;48.118;-1.690;2024-02-21T00:47:53;11.30;99.90
12504;DHT22;6316;48.118;-1.690;2024-02-21T00:50:19;11.20;99.90
12504;DHT22;6316;48.118;-1.690;2024-02-21T00:52:44;11.20;99.90
12504;DHT22;6316;48.118;-1.690;2024-02-21T00:55:10;11.20;99.90
12504;DHT22;6316;48.118;-1.690;2024-02-21T00:57:36;11.30;99.90
12504;DHT22;6316;48.118;-1.690;2024-02-21T01:00:02;11.20;99.90
12504;DHT22;6316;48.118;-1.690;2024-02-21T01:02:28;11.20;99.90
12504;DHT22;6316;48.118;-1.690;2024-02-21T01:04:57;11.20;99.90
12504;DHT22;6316;48.118;-1.690;2024-02-21T01:07:22;11.20;99.90
12504;DHT22;6316;48.118;-1.690;2024-02-21T01:09:48;11.20;99.90
12504;DHT22;6316;48.118;-1.690;2024-02-21T01:12:14;11.30;99.90
12504;DHT22;6316;48.118;-1.690;2024-02-21T01:14:39;11.20;99.90
12504;DHT22;6316;48.118;-1.690;2024-02-21T01:17:05;11.20;99.90
12504;DHT22;6316;48.118;-1.690;2024-02-21T01:19:31;11.30;99.90
12504;DHT22;6316;48.118;-1.690;2024-02-21T01:21:57;11.20;99.90
12504;DHT22;6316;48.118;-1.690;2024-02-21T01:24:22;11.20;99.90
12504;DHT22;6316;48.118;-1.690;2024-02-21T01:26:49;11.20;99.90
12504;DHT22;6316;48.118;-1.690;2024-02-21T01:29:15;11.20;99.90
12504;DHT22;6316;48.118;-1.690;2024-02-21T01:31:41;11.20;99.90
12504;DHT22;6316;48.118;-1.690;2024-02-21T01:34:06;11.30;99.90
12504;DHT22;6316;48.118;-1.690;2024-02-21T01:36:32;11.20;99.90
12504;DHT22;6316;48.118;-1.690;2024-02-21T01:38:58;11.20;99.90
12504;DHT22;6316;48.118;-1.690;2024-02-21T01:41:23;11.20;99.90
12504;DHT22;6316;48.118;-1.690;2024-02-21T01:43:50;11.30;99.90
12504;DHT22;6316;48.118;-1.690;2024-02-21T01:46:15;11.20;99.90
12504;DHT22;6316;48.118;-1.690;2024-02-21T01:48:41;11.20;99.90
12504;DHT22;6316;48.118;-1.690;2024-02-21T01:51:07;11.20;99.90
12504;DHT22;6316;48.118;-1.690;2024-02-21T01:53:36;11.10;99.90
12504;DHT22;6316;48.118;-1.690;2024-02-21T01:56:03;11.20;99.90
12504;DHT22;6316;48.118;-1.690;2024-02-21T01:58:31;11.20;99.90
12504;DHT22;6316;48.118;-1.690;2024-02-21T02:00:57;11.40;99.90
12504;DHT22;6316;48.118;-1.690;2024-02-21T02:03:23;11.30;99.90
12504;DHT22;6316;48.118;-1.690;2024-02-21T02:05:51;11.20;99.90
12504;DHT22;6316;48.118;-1.690;2024-02-21T02:08:18;11.20;99.90
12504;DHT22;6316;48.118;-1.690;2024-02-21T02:10:44;11.20;99.90
12504;DHT22;6316;48.118;-1.690;2024-02-21T02:13:11;11.20;99.90
12504;DHT22;6316;48.118;-1.690;2024-02-21T02:15:40;11.30;99.90
12504;DHT22;6316;48.118;-1.690;2024-02-21T02:18:06;11.20;99.90
12504;DHT22;6316;48.118;-1.690;2024-02-21T02:20:32;11.20;99.90
12504;DHT22;6316;48.118;-1.690;2024-02-21T02:22:59;11.20;99.90
12504;DHT22;6316;48.118;-1.690;2024-02-21T02:25:26;11.20;99.90
12504;DHT22;6316;48.118;-1.690;2024-02-21T02:27:52;11.20;99.90
12504;DHT22;6316;48.118;-1.690;2024-02-21T02:30:18;11.20;99.90
12504;DHT22;6316;48.118;-1.690;2024-02-21T02:32:46;11.20;99.90
12504;DHT22;6316;48.118;-1.690;2024-02-21T02:35:12;11.20;99.90
12504;DHT22;6316;48.118;-1.690;2024-02-21T02:37:38;11.20;99.90
12504;DHT22;6316;48.118;-1.690;2024-02-21T02:40:07;11.20;99.90
12504;DHT22;6316;48.118;-1.690;2024-02-21T02:42:33;11.20;99.90
12504;DHT22;6316;48.118;-1.690;2024-02-21T02:44:58;11.20;99.90
12504;DHT22;6316;48.118;-1.690;2024-02-21T02:47:24;11.10;99.90
12504;DHT22;6316;48.118;-1.690;2024-02-21T02:49:50;11.10;99.90
12504;DHT22;6316;48.118;-1.690;2024-02-21T02:52:17;11.10;99.90
12504;DHT22;6316;48.118;-1.690;2024-02-21T02:54:43;11.10;99.90
12504;DHT22;6316;48.118;-1.690;2024-02-21T02:57:09;11.20;99.90
12504;DHT22;6316;48.118;-1.690;2024-02-21T02:59:35;11.10;99.90
12504;DHT22;6316;48.118;-1.690;2024-02-21T03:02:01;11.10;99.90
12504;DHT22;6316;48.118;-1.690;2024-02-21T03:04:26;11.10;99.90
12504;DHT22;6316;48.118;-1.690;2024-02-21T03:06:52;11.10;99.90
12504;DHT22;6316;48.118;-1.690;2024-02-21T03:09:18;11.10;99.90
12504;DHT22;6316;48.118;-1.690;2024-02-21T03:11:44;11.10;99.90
12504;DHT22;6316;48.118;-1.690;2024-02-21T03:14:10;11.10;99.90
12504;DHT22;6316;48.118;-1.690;2024-02-21T03:16:36;11.10;99.90
12504;DHT22;6316;48.118;-1.690;2024-02-21T03:19:01;11.10;99.90
12504;DHT22;6316;48.118;-1.690;2024-02-21T03:21:27;11.10;99.90
12504;DHT22;6316;48.118;-1.690;2024-02-21T03:23:52;11.10;99.90
12504;DHT22;6316;48.118;-1.690;2024-02-21T03:26:18;11.10;99.90
12504;DHT22;6316;48.118;-1.690;2024-02-21T03:28:44;11.10;99.90
12504;DHT22;6316;48.118;-1.690;2024-02-21T03:31:12;11.10;99.90
12504;DHT22;6316;48.118;-1.690;2024-02-21T03:33:42;11.10;99.90
12504;DHT22;6316;48.118;-1.690;2024-02-21T03:36:15;11.00;99.90
12504;DHT22;6316;48.118;-1.690;2024-02-21T03:38:41;11.10;99.90
12504;DHT22;6316;48.118;-1.690;2024-02-21T03:41:06;11.10;99.90
12504;DHT22;6316;48.118;-1.690;2024-02-21T03:43:32;11.10;99.90
12504;DHT22;6316;48.118;-1.690;2024-02-21T03:45:58;11.10;99.90
12504;DHT22;6316;48.118;-1.690;2024-02-21T03:48:23;11.10;99.90
12504;DHT22;6316;48.118;-1.690;2024-02-21T03:50:49;11.20;99.90
12504;DHT22;6316;48.118;-1.690;2024-02-21T03:53:14;11.20;99.90
12504;DHT22;6316;48.118;-1.690;2024-02-21T03:55:40;11.10;99.90
12504;DHT22;6316;48.118;-1.690;2024-02-21T03:58:06;11.20;99.90
12504;DHT22;6316;48.118;-1.690;2024-02-21T04:00:31;11.10;99.90
12504;DHT22;6316;48.118;-1.690;2024-02-21T04:02:57;11.10;99.90
12504;DHT22;6316;48.118;-1.690;2024-02-21T04:05:22;11.10;99.90
12504;DHT22;6316;48.118;-1.690;2024-02-21T04:07:48;11.10;99.90
12504;DHT22;6316;48.118;-1.690;2024-02-21T04:10:14;11.10;99.90
12504;DHT22;6316;48.118;-1.690;2024-02-21T04:12:39;11.10;99.90
12504;DHT22;6316;48.118;-1.690;2024-02-21T04:15:05;11.10;99.90
12504;DHT22;6316;48.118;-1.690;2024-02-21T04:17:31;11.10;99.90
12504;DHT22;6316;48.118;-1.690;2024-02-21T04:20:03;11.10;99.90
12504;DHT22;6316;48.118;-1.690;2024-02-21T04:22:34;11.10;99.90
12504;DHT22;6316;48.118;-1.690;2024-02-21T04:25:02;11.00;99.90
12504;DHT22;6316;48.118;-1.690;2024-02-21T04:27:28;11.00;99.90
12504;DHT22;6316;48.118;-1.690;2024-02-21T04:29:54;11.00;99.90
12504;DHT22;6316;48.118;-1.690;2024-02-21T04:32:19;11.00;99.90
12504;DHT22;6316;48.118;-1.690;2024-02-21T04:34:45;11.00;99.90
12504;DHT22;6316;48.118;-1.690;2024-02-21T04:37:11;11.00;99.90
12504;DHT22;6316;48.118;-1.690;2024-02-21T04:39:37;11.00;99.90
12504;DHT22;6316;48.118;-1.690;2024-02-21T04:42:02;11.00;99.90
12504;DHT22;6316;48.118;-1.690;2024-02-21T04:44:28;11.00;99.90
12504;DHT22;6316;48.118;-1.690;2024-02-21T04:46:54;11.10;99.90
12504;DHT22;6316;48.118;-1.690;2024-02-21T04:49:20;11.00;99.90
12504;DHT22;6316;48.118;-1.690;2024-02-21T04:51:45;11.00;99.90
12504;DHT22;6316;48.118;-1.690;2024-02-21T04:54:11;11.00;99.90
12504;DHT22;6316;48.118;-1.690;2024-02-21T04:56:36;11.00;99.90
12504;DHT22;6316;48.118;-1.690;2024-02-21T04:59:02;10.90;99.90
12504;DHT22;6316;48.118;-1.690;2024-02-21T05:01:28;11.00;99.90
12504;DHT22;6316;48.118;-1.690;2024-02-21T05:03:54;11.00;99.90
12504;DHT22;6316;48.118;-1.690;2024-02-21T05:06:19;10.90;99.90
12504;DHT22;6316;48.118;-1.690;2024-02-21T05:08:45;11.00;99.90
12504;DHT22;6316;48.118;-1.690;2024-02-21T05:11:10;11.00;99.90
12504;DHT22;6316;48.118;-1.690;2024-02-21T05:13:36;11.00;99.90
12504;DHT22;6316;48.118;-1.690;2024-02-21T05:16:02;11.00;99.90
12504;DHT22;6316;48.118;-1.690;2024-02-21T05:18:28;11.00;99.90
12504;DHT22;6316;48.118;-1.690;2024-02-21T05:20:54;11.10;99.90
12504;DHT22;6316;48.118;-1.690;2024-02-21T05:23:19;11.00;99.90
12504;DHT22;6316;48.118;-1.690;2024-02-21T05:25:46;11.00;99.90
12504;DHT22;6316;48.118;-1.690;2024-02-21T05:28:11;11.00;99.90
12504;DHT22;6316;48.118;-1.690;2024-02-21T05:30:37;11.00;99.90
12504;DHT22;6316;48.118;-1.690;2024-02-21T05:33:06;11.10;99.90
12504;DHT22;6316;48.118;-1.690;2024-02-21T05:35:32;11.10;99.90
12504;DHT22;6316;48.118;-1.690;2024-02-21T05:37:58;11.00;99.90
12504;DHT22;6316;48.118;-1.690;2024-02-21T05:40:24;11.00;99.90
12504;DHT22;6316;48.118;-1.690;2024-02-21T05:42:51;11.10;99.90
12504;DHT22;6316;48.118;-1.690;2024-02-21T05:45:17;11.00;99.90
12504;DHT22;6316;48.118;-1.690;2024-02-21T05:47:43;11.00;99.90
12504;DHT22;6316;48.118;-1.690;2024-02-21T05:50:09;11.20;99.90
12504;DHT22;6316;48.118;-1.690;2024-02-21T05:52:35;11.10;99.90
12504;DHT22;6316;48.118;-1.690;2024-02-21T05:55:01;11.10;99.90
12504;DHT22;6316;48.118;-1.690;2024-02-21T05:57:26;11.10;99.90
12504;DHT22;6316;48.118;-1.690;2024-02-21T05:59:52;11.10;99.90
12504;DHT22;6316;48.118;-1.690;2024-02-21T06:02:18;11.10;99.90
12504;DHT22;6316;48.118;-1.690;2024-02-21T06:04:43;11.10;99.90
12504;DHT22;6316;48.118;-1.690;2024-02-21T06:07:09;11.10;99.90
12504;DHT22;6316;48.118;-1.690;2024-02-21T06:09:35;11.00;99.90
12504;DHT22;6316;48.118;-1.690;2024-02-21T06:12:01;11.10;99.90
12504;DHT22;6316;48.118;-1.690;2024-02-21T06:14:26;11.10;99.90
12504;DHT22;6316;48.118;-1.690;2024-02-21T06:16:52;11.10;99.90
12504;DHT22;6316;48.118;-1.690;2024-02-21T06:19:17;11.10;99.90
12504;DHT22;6316;48.118;-1.690;2024-02-21T06:21:43;11.10;99.90
12504;DHT22;6316;48.118;-1.690;2024-02-21T06:24:09;11.10;99.90
12504;DHT22;6316;48.118;-1.690;2024-02-21T06:26:34;11.10;99.90
12504;DHT22;6316;48.118;-1.690;2024-02-21T06:29:00;11.10;99.90
12504;DHT22;6316;48.118;-1.690;2024-02-21T06:31:27;11.20;99.90
12504;DHT22;6316;48.118;-1.690;2024-02-21T06:33:53;11.10;99.90
12504;DHT22;6316;48.118;-1.690;2024-02-21T06:36:18;11.10;99.90
12504;DHT22;6316;48.118;-1.690;2024-02-21T06:38:44;11.20;99.90
12504;DHT22;6316;48.118;-1.690;2024-02-21T06:41:19;11.20;99.90
12504;DHT22;6316;48.118;-1.690;2024-02-21T06:43:45;11.20;99.90
12504;DHT22;6316;48.118;-1.690;2024-02-21T06:46:12;11.10;99.90
12504;DHT22;6316;48.118;-1.690;2024-02-21T06:48:37;11.20;99.90
12504;DHT22;6316;48.118;-1.690;2024-02-21T06:51:03;11.20;99.90
12504;DHT22;6316;48.118;-1.690;2024-02-21T06:53:29;11.20;99.90
12504;DHT22;6316;48.118;-1.690;2024-02-21T06:55:55;11.20;99.90
12504;DHT22;6316;48.118;-1.690;2024-02-21T06:58:20;11.20;99.90
12504;DHT22;6316;48.118;-1.690;2024-02-21T07:00:46;11.20;99.90
12504;DHT22;6316;48.118;-1.690;2024-02-21T07:03:11;11.30;99.90
12504;DHT22;6316;48.118;-1.690;2024-02-21T07:05:37;11.30;99.90
12504;DHT22;6316;48.118;-1.690;2024-02-21T07:08:03;11.30;99.90
12504;DHT22;6316;48.118;-1.690;2024-02-21T07:10:29;11.30;99.90
12504;DHT22;6316;48.118;-1.690;2024-02-21T07:12:55;11.30;99.90
12504;DHT22;6316;48.118;-1.690;2024-02-21T07:15:21;11.30;99.90
12504;DHT22;6316;48.118;-1.690;2024-02-21T07:17:46;11.30;99.90
12504;DHT22;6316;48.118;-1.690;2024-02-21T07:20:12;11.40;99.90
12504;DHT22;6316;48.118;-1.690;2024-02-21T07:22:37;11.40;99.90
12504;DHT22;6316;48.118;-1.690;2024-02-21T07:25:04;11.30;99.90
12504;DHT22;6316;48.118;-1.690;2024-02-21T07:27:29;11.40;99.90
12504;DHT22;6316;48.118;-1.690;2024-02-21T07:29:57;11.40;99.90
12504;DHT22;6316;48.118;-1.690;2024-02-21T07:32:22;11.50;99.90
12504;DHT22;6316;48.118;-1.690;2024-02-21T07:34:48;11.40;99.90
12504;DHT22;6316;48.118;-1.690;2024-02-21T07:37:14;11.50;99.90
12504;DHT22;6316;48.118;-1.690;2024-02-21T07:39:39;11.50;99.90
12504;DHT22;6316;48.118;-1.690;2024-02-21T07:42:05;11.50;99.90
12504;DHT22;6316;48.118;-1.690;2024-02-21T07:44:31;11.50;99.90
12504;DHT22;6316;48.118;-1.690;2024-02-21T07:46:58;11.50;99.90
12504;DHT22;6316;48.118;-1.690;2024-02-21T07:49:24;11.60;99.90
12504;DHT22;6316;48.118;-1.690;2024-02-21T07:51:50;11.50;99.90
12504;DHT22;6316;48.118;-1.690;2024-02-21T07:54:15;11.50;99.90
12504;DHT22;6316;48.118;-1.690;2024-02-21T07:56:41;11.60;99.90
12504;DHT22;6316;48.118;-1.690;2024-02-21T07:59:07;11.60;99.90
12504;DHT22;6316;48.118;-1.690;2024-02-21T08:01:33;11.60;99.90
12504;DHT22;6316;48.118;-1.690;2024-02-21T08:03:58;11.60;99.90
12504;DHT22;6316;48.118;-1.690;2024-02-21T08:06:25;11.50;99.90
12504;DHT22;6316;48.118;-1.690;2024-02-21T08:08:50;11.60;99.90
12504;DHT22;6316;48.118;-1.690;2024-02-21T08:11:16;11.60;99.90
12504;DHT22;6316;48.118;-1.690;2024-02-21T08:13:41;11.80;99.90
12504;DHT22;6316;48.118;-1.690;2024-02-21T08:16:07;11.70;99.90
12504;DHT22;6316;48.118;-1.690;2024-02-21T08:18:32;11.70;99.90
12504;DHT22;6316;48.118;-1.690;2024-02-21T08:21:03;11.80;99.90
12504;DHT22;6316;48.118;-1.690;2024-02-21T08:23:28;11.90;99.90
12504;DHT22;6316;48.118;-1.690;2024-02-21T08:25:54;11.90;99.90
12504;DHT22;6316;48.118;-1.690;2024-02-21T08:28:20;11.90;99.90
12504;DHT22;6316;48.118;-1.690;2024-02-21T08:30:45;12.00;99.90
12504;DHT22;6316;48.118;-1.690;2024-02-21T08:33:16;12.00;99.90
12504;DHT22;6316;48.118;-1.690;2024-02-21T08:35:42;12.10;99.90
12504;DHT22;6316;48.118;-1.690;2024-02-21T08:38:08;12.20;99.90
12504;DHT22;6316;48.118;-1.690;2024-02-21T08:40:33;12.20;99.90
12504;DHT22;6316;48.118;-1.690;2024-02-21T08:43:00;12.20;99.90
12504;DHT22;6316;48.118;-1.690;2024-02-21T08:45:26;12.20;99.90
12504;DHT22;6316;48.118;-1.690;2024-02-21T08:47:52;12.20;99.90
12504;DHT22;6316;48.118;-1.690;2024-02-21T08:50:17;12.30;99.90
12504;DHT22;6316;48.118;-1.690;2024-02-21T08:52:43;12.40;99.90
12504;DHT22;6316;48.118;-1.690;2024-02-21T08:55:09;12.50;99.90
12504;DHT22;6316;48.118;-1.690;2024-02-21T08:57:34;12.40;99.90
12504;DHT22;6316;48.118;-1.690;2024-02-21T09:00:04;12.40;99.90
12504;DHT22;6316;48.118;-1.690;2024-02-21T09:02:35;12.30;99.90
12504;DHT22;6316;48.118;-1.690;2024-02-21T09:05:02;12.30;99.90
12504;DHT22;6316;48.118;-1.690;2024-02-21T09:07:30;12.30;99.90
12504;DHT22;6316;48.118;-1.690;2024-02-21T09:09:57;12.20;99.90
12504;DHT22;6316;48.118;-1.690;2024-02-21T09:12:22;12.20;99.90
12504;DHT22;6316;48.118;-1.690;2024-02-21T09:14:48;12.20;99.90
12504;DHT22;6316;48.118;-1.690;2024-02-21T09:17:16;12.20;99.90
12504;DHT22;6316;48.118;-1.690;2024-02-21T09:19:43;12.20;99.90
12504;DHT22;6316;48.118;-1.690;2024-02-21T09:22:09;12.20;99.90
12504;DHT22;6316;48.118;-1.690;2024-02-21T09:24:35;12.20;99.90
12504;DHT22;6316;48.118;-1.690;2024-02-21T09:27:00;12.20;99.90
12504;DHT22;6316;48.118;-1.690;2024-02-21T09:29:26;12.20;99.90
12504;DHT22;6316;48.118;-1.690;2024-02-21T09:31:52;12.20;99.90
12504;DHT22;6316;48.118;-1.690;2024-02-21T09:34:18;12.10;99.90
12504;DHT22;6316;48.118;-1.690;2024-02-21T09:36:44;12.20;99.90
12504;DHT22;6316;48.118;-1.690;2024-02-21T09:39:10;12.20;99.90
12504;DHT22;6316;48.118;-1.690;2024-02-21T09:41:48;12.20;99.90
12504;DHT22;6316;48.118;-1.690;2024-02-21T09:44:18;12.20;99.90
12504;DHT22;6316;48.118;-1.690;2024-02-21T09:47:04;12.20;99.90
12504;DHT22;6316;48.118;-1.690;2024-02-21T09:49:34;12.30;99.90
12504;DHT22;6316;48.118;-1.690;2024-02-21T09:52:04;12.30;99.90
12504;DHT22;6316;48.118;-1.690;2024-02-21T09:54:30;12.30;99.90
12504;DHT22;6316;48.118;-1.690;2024-02-21T09:57:00;12.30;99.90
12504;DHT22;6316;48.118;-1.690;2024-02-21T09:59:27;12.40;99.90
12504;DHT22;6316;48.118;-1.690;2024-02-21T10:01:53;12.40;99.90
12504;DHT22;6316;48.118;-1.690;2024-02-21T10:04:20;12.40;99.90
12504;DHT22;6316;48.118;-1.690;2024-02-21T10:06:46;12.40;99.90
12504;DHT22;6316;48.118;-1.690;2024-02-21T10:09:27;12.40;99.90
12504;DHT22;6316;48.118;-1.690;2024-02-21T10:11:54;12.40;99.90
12504;DHT22;6316;48.118;-1.690;2024-02-21T10:14:20;12.40;99.90
12504;DHT22;6316;48.118;-1.690;2024-02-21T10:16:56;12.50;99.90
12504;DHT22;6316;48.118;-1.690;2024-02-21T10:19:23;12.50;99.90
12504;DHT22;6316;48.118;-1.690;2024-02-21T10:22:09;12.50;99.90
12504;DHT22;6316;48.118;-1.690;2024-02-21T10:24:35;12.50;99.90
12504;DHT22;6316;48.118;-1.690;2024-02-21T10:27:05;12.50;99.90
12504;DHT22;6316;48.118;-1.690;2024-02-21T10:29:36;12.50;99.90
12504;DHT22;6316;48.118;-1.690;2024-02-21T10:32:08;12.50;99.90
12504;DHT22;6316;48.118;-1.690;2024-02-21T10:34:35;12.50;99.90
12504;DHT22;6316;48.118;-1.690;2024-02-21T10:37:05;12.50;99.90
12504;DHT22;6316;48.118;-1.690;2024-02-21T10:39:38;12.50;99.90
12504;DHT22;6316;48.118;-1.690;2024-02-21T10:42:04;12.50;99.90
12504;DHT22;6316;48.118;-1.690;2024-02-21T10:44:32;12.60;99.90
12504;DHT22;6316;48.118;-1.690;2024-02-21T10:46:58;12.60;99.90
12504;DHT22;6316;48.118;-1.690;2024-02-21T10:49:26;12.60;99.90
12504;DHT22;6316;48.118;-1.690;2024-02-21T10:52:10;12.60;99.90
12504;DHT22;6316;48.118;-1.690;2024-02-21T10:54:59;12.60;99.90
12504;DHT22;6316;48.118;-1.690;2024-02-21T10:57:29;12.60;99.90
12504;DHT22;6316;48.118;-1.690;2024-02-21T10:59:58;12.60;99.90
12504;DHT22;6316;48.118;-1.690;2024-02-21T11:02:27;12.60;99.90
12504;DHT22;6316;48.118;-1.690;2024-02-21T11:04:55;12.60;99.90
12504;DHT22;6316;48.118;-1.690;2024-02-21T11:07:22;12.60;99.90
12504;DHT22;6316;48.118;-1.690;2024-02-21T11:09:54;12.60;99.90
12504;DHT22;6316;48.118;-1.690;2024-02-21T11:12:23;12.60;99.90
12504;DHT22;6316;48.118;-1.690;2024-02-21T11:14:49;12.60;99.90
12504;DHT22;6316;48.118;-1.690;2024-02-21T11:17:19;12.60;99.90
12504;DHT22;6316;48.118;-1.690;2024-02-21T11:19:46;12.60;99.90
12504;DHT22;6316;48.118;-1.690;2024-02-21T11:22:19;12.60;99.90
12504;DHT22;6316;48.118;-1.690;2024-02-21T11:24:48;12.60;99.90
12504;DHT22;6316;48.118;-1.690;2024-02-21T11:27:19;12.60;99.90
12504;DHT22;6316;48.118;-1.690;2024-02-21T11:29:47;12.60;99.90
12504;DHT22;6316;48.118;-1.690;2024-02-21T11:32:16;12.60;99.90
12504;DHT22;6316;48.118;-1.690;2024-02-21T11:35:19;12.60;99.90
12504;DHT22;6316;48.118;-1.690;2024-02-21T11:37:44;12.60;99.90
12504;DHT22;6316;48.118;-1.690;2024-02-21T11:40:12;12.60;99.90
12504;DHT22;6316;48.118;-1.690;2024-02-21T11:42:38;12.60;99.90
12504;DHT22;6316;48.118;-1.690;2024-02-21T11:45:04;12.60;99.90
12504;DHT22;6316;48.118;-1.690;2024-02-21T11:47:29;12.60;99.90
12504;DHT22;6316;48.118;-1.690;2024-02-21T11:49:55;12.70;99.90
12504;DHT22;6316;48.118;-1.690;2024-02-21T11:52:25;12.60;99.90
12504;DHT22;6316;48.118;-1.690;2024-02-21T11:54:51;12.60;99.90
12504;DHT22;6316;48.118;-1.690;2024-02-21T11:57:18;12.70;99.90
12504;DHT22;6316;48.118;-1.690;2024-02-21T11:59:45;12.70;99.90
12504;DHT22;6316;48.118;-1.690;2024-02-21T12:02:12;12.70;99.90
12504;DHT22;6316;48.118;-1.690;2024-02-21T12:04:38;12.70;99.90
12504;DHT22;6316;48.118;-1.690;2024-02-21T12:07:04;12.70;99.90
12504;DHT22;6316;48.118;-1.690;2024-02-21T12:09:30;12.70;99.90
12504;DHT22;6316;48.118;-1.690;2024-02-21T12:12:03;12.70;99.90
12504;DHT22;6316;48.118;-1.690;2024-02-21T12:14:30;12.80;99.90
12504;DHT22;6316;48.118;-1.690;2024-02-21T12:16:57;12.80;99.90
12504;DHT22;6316;48.118;-1.690;2024-02-21T12:19:23;12.80;99.90
12504;DHT22;6316;48.118;-1.690;2024-02-21T12:21:49;12.80;99.90
12504;DHT22;6316;48.118;-1.690;2024-02-21T12:24:25;12.80;99.90
12504;DHT22;6316;48.118;-1.690;2024-02-21T12:26:52;12.80;99.90
12504;DHT22;6316;48.118;-1.690;2024-02-21T12:29:23;12.80;99.90
12504;DHT22;6316;48.118;-1.690;2024-02-21T12:31:50;12.80;99.90
12504;DHT22;6316;48.118;-1.690;2024-02-21T12:34:16;12.80;99.90
12504;DHT22;6316;48.118;-1.690;2024-02-21T12:36:46;12.80;99.90
12504;DHT22;6316;48.118;-1.690;2024-02-21T12:39:14;12.80;99.90
12504;DHT22;6316;48.118;-1.690;2024-02-21T12:41:40;12.80;99.90
12504;DHT22;6316;48.118;-1.690;2024-02-21T12:44:08;12.80;99.90
12504;DHT22;6316;48.118;-1.690;2024-02-21T12:46:38;12.80;99.90
12504;DHT22;6316;48.118;-1.690;2024-02-21T12:49:04;12.80;99.90
12504;DHT22;6316;48.118;-1.690;2024-02-21T12:51:32;12.60;99.90
12504;DHT22;6316;48.118;-1.690;2024-02-21T12:53:58;12.80;99.90
12504;DHT22;6316;48.118;-1.690;2024-02-21T12:56:24;12.60;99.90
12504;DHT22;6316;48.118;-1.690;2024-02-21T12:58:51;12.70;99.90
12504;DHT22;6316;48.118;-1.690;2024-02-21T13:01:17;12.70;99.90
12504;DHT22;6316;48.118;-1.690;2024-02-21T13:03:42;12.70;99.90
12504;DHT22;6316;48.118;-1.690;2024-02-21T13:06:08;12.70;99.90
12504;DHT22;6316;48.118;-1.690;2024-02-21T13:08:36;12.60;99.90
12504;DHT22;6316;48.118;-1.690;2024-02-21T13:11:02;12.70;99.90
12504;DHT22;6316;48.118;-1.690;2024-02-21T13:13:28;12.60;99.90
12504;DHT22;6316;48.118;-1.690;2024-02-21T13:15:53;12.60;99.90
12504;DHT22;6316;48.118;-1.690;2024-02-21T13:18:19;12.70;99.90
12504;DHT22;6316;48.118;-1.690;2024-02-21T13:20:44;12.60;99.90
12504;DHT22;6316;48.118;-1.690;2024-02-21T13:23:10;12.60;99.90
12504;DHT22;6316;48.118;-1.690;2024-02-21T13:25:35;12.60;99.90
12504;DHT22;6316;48.118;-1.690;2024-02-21T13:28:01;12.70;99.90
12504;DHT22;6316;48.118;-1.690;2024-02-21T13:30:28;12.60;99.90
12504;DHT22;6316;48.118;-1.690;2024-02-21T13:32:54;12.60;99.90
12504;DHT22;6316;48.118;-1.690;2024-02-21T13:35:22;12.70;99.90
12504;DHT22;6316;48.118;-1.690;2024-02-21T13:37:48;12.60;99.90
12504;DHT22;6316;48.118;-1.690;2024-02-21T13:40:15;12.60;99.90
12504;DHT22;6316;48.118;-1.690;2024-02-21T13:42:41;12.60;99.90
12504;DHT22;6316;48.118;-1.690;2024-02-21T13:45:08;12.60;99.90
12504;DHT22;6316;48.118;-1.690;2024-02-21T13:47:34;12.60;99.90
12504;DHT22;6316;48.118;-1.690;2024-02-21T13:50:02;12.70;99.90
12504;DHT22;6316;48.118;-1.690;2024-02-21T13:52:30;12.60;99.90
12504;DHT22;6316;48.118;-1.690;2024-02-21T13:54:56;12.70;99.90
12504;DHT22;6316;48.118;-1.690;2024-02-21T13:57:21;12.60;99.90
12504;DHT22;6316;48.118;-1.690;2024-02-21T13:59:47;12.60;99.90
12504;DHT22;6316;48.118;-1.690;2024-02-21T14:02:12;12.70;99.90
12504;DHT22;6316;48.118;-1.690;2024-02-21T14:04:38;12.70;99.90
12504;DHT22;6316;48.118;-1.690;2024-02-21T14:07:04;12.70;99.90
12504;DHT22;6316;48.118;-1.690;2024-02-21T14:09:30;12.70;99.90
12504;DHT22;6316;48.118;-1.690;2024-02-21T14:11:56;12.70;99.90
12504;DHT22;6316;48.118;-1.690;2024-02-21T14:14:21;12.70;99.90
12504;DHT22;6316;48.118;-1.690;2024-02-21T14:16:47;12.70;99.90
12504;DHT22;6316;48.118;-1.690;2024-02-21T14:19:14;12.70;99.90
12504;DHT22;6316;48.118;-1.690;2024-02-21T14:21:39;12.80;99.90
12504;DHT22;6316;48.118;-1.690;2024-02-21T14:24:05;12.70;99.90
12504;DHT22;6316;48.118;-1.690;2024-02-21T14:26:31;12.80;99.90
12504;DHT22;6316;48.118;-1.690;2024-02-21T14:28:57;12.80;99.90
12504;DHT22;6316;48.118;-1.690;2024-02-21T14:31:23;12.60;99.90
12504;DHT22;6316;48.118;-1.690;2024-02-21T14:33:49;12.80;99.90
12504;DHT22;6316;48.118;-1.690;2024-02-21T14:36:14;12.80;99.90
12504;DHT22;6316;48.118;-1.690;2024-02-21T14:38:43;12.80;99.90
12504;DHT22;6316;48.118;-1.690;2024-02-21T14:41:10;12.90;99.90
12504;DHT22;6316;48.118;-1.690;2024-02-21T14:43:38;12.90;99.90
12504;DHT22;6316;48.118;-1.690;2024-02-21T14:46:04;12.80;99.90
12504;DHT22;6316;48.118;-1.690;2024-02-21T14:48:33;12.80;99.90
12504;DHT22;6316;48.118;-1.690;2024-02-21T14:50:59;12.90;99.90
12504;DHT22;6316;48.118;-1.690;2024-02-21T14:53:25;12.90;99.90
12504;DHT22;6316;48.118;-1.690;2024-02-21T14:55:50;12.90;99.90
12504;DHT22;6316;48.118;-1.690;2024-02-21T14:58:17;12.90;99.90
12504;DHT22;6316;48.118;-1.690;2024-02-21T15:00:45;12.90;99.90
12504;DHT22;6316;48.118;-1.690;2024-02-21T15:03:12;13.00;99.90
12504;DHT22;6316;48.118;-1.690;2024-02-21T15:05:41;13.00;99.90
12504;DHT22;6316;48.118;-1.690;2024-02-21T15:08:07;13.00;99.90
12504;DHT22;6316;48.118;-1.690;2024-02-21T15:10:35;13.00;99.90
12504;DHT22;6316;48.118;-1.690;2024-02-21T15:13:01;13.10;99.90
12504;DHT22;6316;48.118;-1.690;2024-02-21T15:15:26;13.10;99.90
12504;DHT22;6316;48.118;-1.690;2024-02-21T15:17:52;13.10;99.90
12504;DHT22;6316;48.118;-1.690;2024-02-21T15:20:18;13.10;99.90
12504;DHT22;6316;48.118;-1.690;2024-02-21T15:22:43;13.20;99.90
12504;DHT22;6316;48.118;-1.690;2024-02-21T15:25:09;13.20;99.90
12504;DHT22;6316;48.118;-1.690;2024-02-21T15:27:45;13.30;99.90